createdAt,value
2022-07-29T00:00:23.218Z,17.19
2022-07-29T00:02:55.788Z,17.10
2022-07-29T00:05:28.346Z,16.89
2022-07-29T00:08:00.798Z,16.84
2022-07-29T00:10:33.334Z,16.83
2022-07-29T00:13:05.818Z,16.60
2022-07-29T00:15:38.943Z,16.51
2022-07-29T00:18:11.338Z,16.44
2022-07-29T00:20:43.826Z,16.58
2022-07-29T00:23:16.215Z,16.65
2022-07-29T00:25:48.625Z,16.62
2022-07-29T00:28:21.029Z,16.80
2022-07-29T00:30:54.158Z,16.86
2022-07-29T00:33:26.537Z,16.88
2022-07-29T00:35:58.655Z,16.86
2022-07-29T00:38:31.165Z,16.88
2022-07-29T00:41:03.501Z,16.91
2022-07-29T00:43:35.943Z,16.88
2022-07-29T00:46:09.064Z,16.88
2022-07-29T00:48:41.537Z,16.56
2022-07-29T00:51:14.588Z,16.48
2022-07-29T00:53:51.225Z,16.46
2022-07-29T00:56:23.851Z,16.50
2022-07-29T00:58:57.478Z,16.47
2022-07-29T01:01:30.655Z,16.41
2022-07-29T01:04:03.201Z,16.57
2022-07-29T01:06:36.358Z,16.69
2022-07-29T01:09:09.871Z,16.48
2022-07-29T01:11:44.149Z,16.51
2022-07-29T01:14:17.552Z,16.38
2022-07-29T01:16:55.476Z,16.41
2022-07-29T01:19:53.651Z,16.42
2022-07-29T01:22:54.541Z,16.44
2022-07-29T01:25:53.170Z,16.49
2022-07-29T01:29:07.604Z,16.60
2022-07-29T01:31:59.315Z,16.55
2022-07-29T01:34:41.862Z,16.48
2022-07-29T01:37:20.157Z,16.20
2022-07-29T01:39:55.963Z,16.34
2022-07-29T01:42:32.824Z,16.24
2022-07-29T01:45:11.947Z,16.07
2022-07-29T01:47:47.729Z,16.03
2022-07-29T01:50:23.963Z,16.06
2022-07-29T01:53:00.807Z,16.05
2022-07-29T01:55:36.147Z,16.19
2022-07-29T01:58:09.782Z,16.31
2022-07-29T02:00:45.853Z,16.26
2022-07-29T02:03:19.783Z,16.23
2022-07-29T02:05:53.644Z,16.39
2022-07-29T02:08:27.669Z,16.36
2022-07-29T02:11:01.351Z,16.44
2022-07-29T02:13:36.403Z,16.45
2022-07-29T02:16:11.277Z,16.22
2022-07-29T02:18:46.324Z,16.10
2022-07-29T02:21:24.856Z,16.05
2022-07-29T02:24:00.248Z,16.11
2022-07-29T02:26:34.300Z,16.22
2022-07-29T02:29:09.392Z,16.31
2022-07-29T02:31:47.521Z,16.38
2022-07-29T02:34:21.847Z,16.21
2022-07-29T02:36:56.453Z,16.12
2022-07-29T02:39:30.561Z,16.20
2022-07-29T02:42:08.058Z,16.27
2022-07-29T02:44:40.614Z,16.29
2022-07-29T02:47:17.902Z,16.31
2022-07-29T02:49:58.167Z,16.36
2022-07-29T02:52:38.794Z,16.41
2022-07-29T02:55:17.187Z,16.38
2022-07-29T02:57:55.707Z,16.30
2022-07-29T03:00:30.699Z,16.35
2022-07-29T03:03:08.119Z,16.33
2022-07-29T03:05:41.109Z,16.17
2022-07-29T03:08:15.743Z,16.04
2022-07-29T03:10:49.124Z,15.91
2022-07-29T03:13:22.096Z,15.82
2022-07-29T03:15:55.589Z,15.72
2022-07-29T03:18:29.394Z,15.83
2022-07-29T03:21:02.211Z,15.97
2022-07-29T03:23:35.340Z,16.00
2022-07-29T03:26:09.339Z,16.07
2022-07-29T03:28:41.779Z,15.98
2022-07-29T03:31:14.548Z,16.03
2022-07-29T03:33:47.775Z,15.93
2022-07-29T03:36:20.207Z,15.90
2022-07-29T03:38:53.588Z,15.92
2022-07-29T03:41:26.665Z,15.77
2022-07-29T03:44:00.731Z,15.92
2022-07-29T03:46:36.201Z,16.04
2022-07-29T03:49:10.816Z,16.00
2022-07-29T03:51:43.935Z,15.98
2022-07-29T03:54:16.761Z,16.06
2022-07-29T03:56:53.247Z,16.07
2022-07-29T03:59:26.755Z,15.94
2022-07-29T04:02:00.623Z,15.80
2022-07-29T04:04:34.649Z,15.70
2022-07-29T04:07:07.003Z,15.76
2022-07-29T04:09:39.452Z,15.69
2022-07-29T04:12:11.899Z,15.73
2022-07-29T04:14:44.390Z,15.80
2022-07-29T04:17:17.239Z,15.94
2022-07-29T04:19:50.328Z,16.00
2022-07-29T04:22:22.692Z,16.04
2022-07-29T04:24:57.105Z,16.14
2022-07-29T04:27:32.646Z,16.09
2022-07-29T04:30:06.244Z,16.03
2022-07-29T04:32:38.602Z,16.06
2022-07-29T04:35:11.680Z,16.15
2022-07-29T04:37:44.204Z,16.20
2022-07-29T04:40:16.867Z,16.06
2022-07-29T04:42:49.542Z,16.16
2022-07-29T04:45:22.883Z,16.28
2022-07-29T04:47:55.500Z,16.36
2022-07-29T04:50:28.884Z,16.41
2022-07-29T04:53:01.305Z,16.44
2022-07-29T04:55:34.071Z,16.42
2022-07-29T04:58:07.698Z,16.40
2022-07-29T05:00:40.597Z,16.37
2022-07-29T05:03:13.036Z,16.39
2022-07-29T05:05:46.206Z,16.46
2022-07-29T05:08:18.642Z,16.61
2022-07-29T05:10:51.113Z,16.61
2022-07-29T05:13:23.797Z,16.78
2022-07-29T05:15:58.577Z,16.95
2022-07-29T05:18:30.990Z,17.10
2022-07-29T05:21:04.120Z,17.24
2022-07-29T05:23:36.583Z,17.38
2022-07-29T05:26:08.924Z,17.42
2022-07-29T05:28:41.318Z,17.50
2022-07-29T05:31:14.862Z,17.68
2022-07-29T05:33:47.303Z,17.81
2022-07-29T05:36:20.329Z,17.87
2022-07-29T05:38:52.751Z,17.99
2022-07-29T05:41:25.223Z,18.10
2022-07-29T05:43:58.045Z,18.34
2022-07-29T05:46:30.827Z,18.55
2022-07-29T05:49:04.581Z,18.74
2022-07-29T05:51:37.701Z,18.85
2022-07-29T05:54:10.965Z,19.04
2022-07-29T05:56:43.356Z,19.26
2022-07-29T05:59:18.348Z,19.41
2022-07-29T06:01:51.218Z,19.50
2022-07-29T06:04:23.793Z,19.61
2022-07-29T06:06:56.938Z,19.70
2022-07-29T06:09:29.503Z,19.84
2022-07-29T06:12:02.835Z,19.96
2022-07-29T06:14:35.420Z,20.00
2022-07-29T06:17:07.878Z,20.22
2022-07-29T06:19:40.512Z,20.29
2022-07-29T06:22:16.014Z,20.32
2022-07-29T06:24:48.448Z,20.44
2022-07-29T06:27:20.780Z,20.62
2022-07-29T06:29:53.165Z,20.69
2022-07-29T06:32:27.516Z,20.82
2022-07-29T06:35:24.530Z,20.97
2022-07-29T06:37:53.898Z,21.17
2022-07-29T06:40:48.901Z,21.29
2022-07-29T06:43:21.360Z,21.54
2022-07-29T06:45:55.278Z,21.66
2022-07-29T06:48:29.010Z,21.76
2022-07-29T06:51:02.033Z,21.82
2022-07-29T06:53:36.074Z,21.96
2022-07-29T06:56:09.068Z,21.89
2022-07-29T06:58:41.450Z,22.10
2022-07-29T07:01:13.967Z,22.21
2022-07-29T07:03:46.340Z,22.38
2022-07-29T07:06:18.742Z,22.43
2022-07-29T07:08:51.776Z,22.64
2022-07-29T07:11:24.395Z,22.91
2022-07-29T07:14:02.248Z,23.03
2022-07-29T07:16:35.879Z,23.17
2022-07-29T07:19:08.309Z,23.32
2022-07-29T07:21:40.736Z,23.42
2022-07-29T07:24:14.014Z,23.60
2022-07-29T07:26:46.778Z,23.74
2022-07-29T07:29:19.236Z,24.00
2022-07-29T07:31:51.741Z,24.00
2022-07-29T07:34:28.380Z,24.14
2022-07-29T07:37:02.201Z,24.43
2022-07-29T07:39:35.326Z,24.64
2022-07-29T07:42:14.725Z,24.65
2022-07-29T07:45:11.953Z,24.60
2022-07-29T07:47:41.091Z,24.75
2022-07-29T07:50:18.234Z,24.93
2022-07-29T07:52:52.588Z,25.01
2022-07-29T07:55:26.379Z,25.12
2022-07-29T07:57:58.931Z,25.24
2022-07-29T08:00:32.543Z,25.39
2022-07-29T08:03:05.280Z,25.61
2022-07-29T08:05:50.984Z,25.66
2022-07-29T08:08:23.368Z,25.66
2022-07-29T08:10:56.737Z,25.77
2022-07-29T08:13:30.413Z,25.89
2022-07-29T08:16:11.606Z,25.84
2022-07-29T08:18:45.578Z,26.06
2022-07-29T08:21:18.481Z,26.08
2022-07-29T08:23:59.691Z,26.16
2022-07-29T08:26:35.111Z,26.14
2022-07-29T08:29:07.611Z,26.34
2022-07-29T08:31:40.623Z,26.49
2022-07-29T08:34:13.100Z,26.59
2022-07-29T08:36:45.483Z,26.76
2022-07-29T08:39:23.306Z,26.96
2022-07-29T08:41:57.175Z,27.18
2022-07-29T08:44:31.308Z,27.26
2022-07-29T08:47:04.966Z,27.28
2022-07-29T08:49:38.496Z,27.28
2022-07-29T08:52:11.844Z,27.51
2022-07-29T08:54:44.781Z,27.52
2022-07-29T08:57:19.070Z,27.64
2022-07-29T08:59:54.920Z,27.73
2022-07-29T09:02:34.358Z,27.87
2022-07-29T09:05:08.159Z,27.88
2022-07-29T09:07:43.420Z,28.07
2022-07-29T09:10:15.835Z,28.11
2022-07-29T09:12:49.471Z,28.36
2022-07-29T09:15:21.868Z,28.33
2022-07-29T09:17:55.659Z,28.40
2022-07-29T09:20:48.926Z,28.54
2022-07-29T09:23:24.218Z,28.85
2022-07-29T09:26:06.266Z,29.06
2022-07-29T09:28:43.183Z,28.98
2022-07-29T09:31:15.665Z,29.03
2022-07-29T09:33:48.146Z,29.21
2022-07-29T09:36:20.588Z,29.30
2022-07-29T09:38:58.974Z,29.46
2022-07-29T09:41:45.569Z,29.68
2022-07-29T09:44:19.070Z,29.76
2022-07-29T09:46:59.365Z,29.42
2022-07-29T09:49:32.293Z,29.65
2022-07-29T09:52:26.161Z,29.81
2022-07-29T09:55:06.474Z,30.02
2022-07-29T09:57:39.008Z,30.14
2022-07-29T10:00:14.925Z,30.33
2022-07-29T10:02:47.942Z,30.13
2022-07-29T10:05:22.275Z,30.54
2022-07-29T10:07:57.150Z,30.73
2022-07-29T10:10:31.612Z,31.11
2022-07-29T10:13:09.963Z,31.32
2022-07-29T10:15:46.665Z,30.86
2022-07-29T10:18:20.259Z,31.04
2022-07-29T10:20:53.783Z,31.16
2022-07-29T10:23:26.583Z,31.27
2022-07-29T10:25:59.353Z,31.01
2022-07-29T10:28:32.383Z,31.08
2022-07-29T10:31:11.937Z,31.25
2022-07-29T10:33:53.871Z,31.43
2022-07-29T10:36:43.229Z,31.71
2022-07-29T10:39:41.758Z,31.95
2022-07-29T10:42:33.483Z,32.40
2022-07-29T10:45:08.004Z,32.64
2022-07-29T10:47:42.182Z,32.33
2022-07-29T10:50:17.405Z,32.21
2022-07-29T10:52:54.738Z,32.33
2022-07-29T10:55:36.753Z,32.05
2022-07-29T10:58:14.169Z,32.21
2022-07-29T11:00:47.627Z,32.29
2022-07-29T11:03:50.761Z,32.37
2022-07-29T11:06:26.578Z,32.47
2022-07-29T11:09:20.125Z,32.39
2022-07-29T11:11:53.478Z,32.68
2022-07-29T11:14:56.610Z,32.36
2022-07-29T11:17:37.564Z,31.99
2022-07-29T11:20:40.785Z,32.05
2022-07-29T11:23:27.443Z,31.99
2022-07-29T11:26:20.879Z,31.94
2022-07-29T11:29:03.338Z,31.74
2022-07-29T11:31:39.174Z,31.73
2022-07-29T11:34:20.911Z,31.82
2022-07-29T11:37:27.994Z,32.34
2022-07-29T11:40:19.340Z,32.60
2022-07-29T11:42:52.820Z,32.89
2022-07-29T11:45:41.557Z,33.26
2022-07-29T11:48:28.591Z,33.35
2022-07-29T11:51:10.429Z,33.39
2022-07-29T11:53:47.911Z,33.44
2022-07-29T11:56:31.335Z,33.65
2022-07-29T11:59:09.299Z,33.69
2022-07-29T12:02:06.633Z,33.71
2022-07-29T12:04:52.457Z,33.91
2022-07-29T12:07:34.720Z,34.19
2022-07-29T12:10:11.622Z,33.49
2022-07-29T12:12:53.343Z,33.57
2022-07-29T12:15:46.062Z,33.98
2022-07-29T12:18:24.383Z,34.31
2022-07-29T12:21:04.010Z,34.37
2022-07-29T12:23:36.375Z,34.60
2022-07-29T12:26:10.629Z,34.36
2022-07-29T12:28:54.692Z,34.01
2022-07-29T12:31:43.961Z,33.96
2022-07-29T12:34:17.878Z,33.39
2022-07-29T12:36:50.695Z,33.69
2022-07-29T12:39:23.235Z,33.61
2022-07-29T12:42:03.984Z,33.70
2022-07-29T12:44:47.853Z,33.61
2022-07-29T12:47:21.295Z,33.32
2022-07-29T12:50:09.463Z,33.66
2022-07-29T12:52:41.941Z,33.78
2022-07-29T12:55:14.859Z,33.81
2022-07-29T12:57:49.046Z,33.94
2022-07-29T13:00:23.913Z,33.84
2022-07-29T13:02:58.264Z,33.59
2022-07-29T13:05:41.538Z,33.56
2022-07-29T13:08:20.082Z,33.46
2022-07-29T13:10:54.567Z,33.42
2022-07-29T13:13:27.766Z,33.40
2022-07-29T13:16:07.718Z,33.17
2022-07-29T13:18:41.549Z,33.12
2022-07-29T13:21:16.314Z,33.17
2022-07-29T13:23:48.977Z,33.01
2022-07-29T13:26:21.362Z,33.02
2022-07-29T13:28:54.934Z,32.87
2022-07-29T13:31:27.511Z,32.78
2022-07-29T13:33:59.905Z,32.72
2022-07-29T13:36:32.350Z,32.50
2022-07-29T13:39:05.026Z,32.25
2022-07-29T13:41:37.496Z,32.31
2022-07-29T13:44:10.563Z,31.97
2022-07-29T13:46:42.969Z,32.09
2022-07-29T13:49:15.431Z,32.18
2022-07-29T13:51:47.874Z,32.22
2022-07-29T13:54:20.510Z,32.04
2022-07-29T13:56:52.965Z,31.90
2022-07-29T13:59:25.975Z,31.72
2022-07-29T14:01:58.576Z,31.24
2022-07-29T14:04:31.268Z,31.14
2022-07-29T14:07:04.131Z,31.29
2022-07-29T14:09:41.006Z,31.34
2022-07-29T14:12:21.297Z,31.27
2022-07-29T14:14:54.405Z,31.26
2022-07-29T14:17:26.922Z,31.34
2022-07-29T14:19:59.310Z,31.28
2022-07-29T14:22:31.743Z,31.19
2022-07-29T14:25:14.653Z,31.28
2022-07-29T14:27:47.842Z,31.27
2022-07-29T14:30:21.443Z,31.36
2022-07-29T14:32:53.799Z,31.48
2022-07-29T14:35:26.385Z,31.36
2022-07-29T14:37:58.857Z,31.27
2022-07-29T14:40:31.424Z,31.30
2022-07-29T14:43:03.819Z,31.10
2022-07-29T14:45:36.990Z,31.15
2022-07-29T14:48:09.439Z,31.19
2022-07-29T14:50:41.859Z,31.04
2022-07-29T14:53:14.471Z,31.01
2022-07-29T14:55:46.871Z,30.93
2022-07-29T14:58:20.051Z,30.77
2022-07-29T15:00:54.950Z,30.66
2022-07-29T15:03:28.039Z,30.58
2022-07-29T15:06:00.481Z,30.50
2022-07-29T15:08:32.844Z,30.44
2022-07-29T15:11:05.271Z,30.27
2022-07-29T15:13:37.615Z,30.27
2022-07-29T15:16:10.708Z,30.26
2022-07-29T15:18:43.427Z,30.20
2022-07-29T15:21:15.867Z,30.18
2022-07-29T15:23:48.234Z,30.10
2022-07-29T15:26:20.583Z,30.01
2022-07-29T15:28:53.099Z,29.91
2022-07-29T15:31:26.233Z,29.85
2022-07-29T15:34:01.290Z,29.77
2022-07-29T15:36:53.586Z,29.76
2022-07-29T15:39:26.083Z,29.75
2022-07-29T15:42:00.463Z,29.68
2022-07-29T15:44:33.291Z,29.64
2022-07-29T15:47:06.840Z,29.60
2022-07-29T15:49:48.786Z,29.57
2022-07-29T15:52:25.130Z,29.51
2022-07-29T15:54:59.591Z,29.49
2022-07-29T15:57:32.020Z,29.47
2022-07-29T16:00:05.539Z,29.39
2022-07-29T16:02:41.182Z,29.32
2022-07-29T16:05:13.599Z,29.30
2022-07-29T16:07:46.003Z,29.26
2022-07-29T16:10:18.457Z,29.25
2022-07-29T16:12:50.872Z,29.25
2022-07-29T16:15:23.463Z,29.23
2022-07-29T16:17:56.568Z,29.20
2022-07-29T16:20:28.970Z,29.04
2022-07-29T16:23:01.380Z,29.07
2022-07-29T16:25:58.618Z,29.08
2022-07-29T16:28:26.130Z,29.11
2022-07-29T16:30:58.588Z,29.12
2022-07-29T16:33:54.623Z,29.09
2022-07-29T16:36:24.228Z,29.10
2022-07-29T16:38:56.599Z,29.08
2022-07-29T16:41:29.035Z,29.04
2022-07-29T16:44:01.437Z,29.04
2022-07-29T16:46:36.511Z,29.01
2022-07-29T16:49:11.110Z,28.99
2022-07-29T16:51:43.563Z,28.89
2022-07-29T16:54:15.995Z,28.72
2022-07-29T16:56:48.504Z,28.69
2022-07-29T16:59:20.919Z,28.64
2022-07-29T17:01:53.462Z,28.32
2022-07-29T17:04:26.802Z,28.20
2022-07-29T17:06:59.918Z,28.21
2022-07-29T17:09:33.367Z,28.10
2022-07-29T17:12:06.311Z,28.04
2022-07-29T17:14:38.768Z,28.05
2022-07-29T17:17:13.712Z,27.96
2022-07-29T17:19:48.674Z,27.86
2022-07-29T17:22:21.060Z,27.75
2022-07-29T17:24:53.629Z,27.61
2022-07-29T17:27:26.039Z,27.53
2022-07-29T17:29:58.452Z,27.43
2022-07-29T17:32:35.667Z,27.40
2022-07-29T17:35:24.292Z,27.39
2022-07-29T17:37:56.877Z,27.36
2022-07-29T17:40:29.275Z,27.29
2022-07-29T17:43:01.644Z,27.23
2022-07-29T17:45:49.960Z,27.19
2022-07-29T17:48:23.322Z,27.07
2022-07-29T17:50:57.735Z,27.00
2022-07-29T17:53:30.215Z,26.76
2022-07-29T17:56:03.253Z,26.62
2022-07-29T17:58:35.774Z,26.60
2022-07-29T18:01:08.599Z,26.46
2022-07-29T18:03:41.375Z,26.26
2022-07-29T18:06:14.468Z,26.13
2022-07-29T18:08:47.226Z,25.99
2022-07-29T18:11:19.559Z,25.79
2022-07-29T18:13:52.155Z,25.73
2022-07-29T18:16:24.571Z,25.63
2022-07-29T18:18:56.998Z,25.51
2022-07-29T18:21:43.736Z,25.46
2022-07-29T18:24:24.509Z,25.38
2022-07-29T18:26:57.190Z,25.30
2022-07-29T18:29:29.775Z,25.16
2022-07-29T18:32:02.393Z,25.07
2022-07-29T18:34:34.805Z,24.89
2022-07-29T18:37:07.882Z,24.88
2022-07-29T18:39:40.317Z,24.77
2022-07-29T18:42:12.694Z,24.79
2022-07-29T18:44:49.109Z,24.84
2022-07-29T18:47:21.727Z,24.78
2022-07-29T18:49:54.139Z,24.44
2022-07-29T18:52:28.375Z,24.49
2022-07-29T18:55:01.830Z,24.22
2022-07-29T18:57:54.228Z,24.31
2022-07-29T19:00:27.333Z,24.27
2022-07-29T19:02:59.833Z,24.28
2022-07-29T19:05:32.489Z,24.09
2022-07-29T19:08:06.295Z,24.06
2022-07-29T19:10:38.640Z,24.00
2022-07-29T19:13:13.409Z,23.95
2022-07-29T19:15:46.105Z,24.02
2022-07-29T19:18:18.630Z,24.08
2022-07-29T19:20:51.102Z,24.05
2022-07-29T19:23:24.803Z,24.00
2022-07-29T19:25:58.790Z,24.01
2022-07-29T19:28:31.142Z,24.01
2022-07-29T19:31:03.976Z,24.00
2022-07-29T19:33:36.418Z,23.97
2022-07-29T19:36:08.784Z,23.98
2022-07-29T19:38:41.850Z,23.94
2022-07-29T19:41:16.339Z,23.66
2022-07-29T19:43:50.722Z,23.56
2022-07-29T19:46:28.036Z,23.62
2022-07-29T19:49:00.585Z,23.58
2022-07-29T19:51:33.168Z,23.60
2022-07-29T19:54:06.405Z,23.43
2022-07-29T19:56:39.483Z,23.40
2022-07-29T19:59:14.533Z,23.27
2022-07-29T20:01:46.919Z,23.28
2022-07-29T20:04:19.283Z,23.23
2022-07-29T20:06:55.083Z,23.25
2022-07-29T20:09:28.401Z,23.22
2022-07-29T20:12:00.868Z,23.11
2022-07-29T20:14:33.348Z,23.06
2022-07-29T20:17:06.036Z,22.99
2022-07-29T20:19:38.468Z,23.00
2022-07-29T20:22:11.203Z,22.82
2022-07-29T20:24:44.591Z,22.72
2022-07-29T20:27:17.628Z,22.64
2022-07-29T20:29:50.051Z,22.46
2022-07-29T20:32:22.432Z,22.54
2022-07-29T20:34:54.771Z,22.56
2022-07-29T20:37:27.174Z,22.50
2022-07-29T20:40:01.475Z,22.50
2022-07-29T20:42:33.963Z,22.41
2022-07-29T20:45:08.789Z,22.43
2022-07-29T20:47:41.476Z,22.40
2022-07-29T20:50:14.276Z,22.21
2022-07-29T20:52:46.742Z,22.25
2022-07-29T20:55:20.250Z,22.20
2022-07-29T20:57:52.766Z,21.92
2022-07-29T21:00:25.146Z,21.93
2022-07-29T21:02:57.655Z,22.02
2022-07-29T21:05:30.081Z,21.92
2022-07-29T21:08:02.639Z,21.70
2022-07-29T21:10:35.738Z,21.75
2022-07-29T21:13:08.770Z,21.78
2022-07-29T21:15:43.371Z,21.78
2022-07-29T21:18:26.560Z,21.73
2022-07-29T21:20:59.885Z,21.63
2022-07-29T21:23:32.407Z,21.62
2022-07-29T21:26:09.819Z,21.58
2022-07-29T21:28:44.679Z,21.46
2022-07-29T21:31:17.417Z,21.43
2022-07-29T21:33:49.811Z,21.42
2022-07-29T21:36:47.294Z,21.34
2022-07-29T21:39:14.592Z,21.32
2022-07-29T21:41:47.748Z,21.05
2022-07-29T21:44:21.123Z,20.88
2022-07-29T21:46:53.515Z,20.98
2022-07-29T21:49:25.949Z,21.01
2022-07-29T21:51:58.321Z,20.89
2022-07-29T21:54:32.036Z,20.65
2022-07-29T21:57:05.311Z,20.60
2022-07-29T21:59:37.815Z,20.48
2022-07-29T22:02:10.189Z,20.53
2022-07-29T22:04:42.590Z,20.62
2022-07-29T22:07:15.083Z,20.57
2022-07-29T22:09:47.450Z,20.50
2022-07-29T22:12:20.506Z,20.52
2022-07-29T22:14:53.319Z,20.59
2022-07-29T22:17:25.791Z,20.55
2022-07-29T22:19:58.339Z,20.58
2022-07-29T22:22:30.747Z,20.33
2022-07-29T22:25:04.188Z,20.31
2022-07-29T22:27:37.595Z,20.12
2022-07-29T22:30:11.326Z,20.02
2022-07-29T22:32:43.812Z,20.06
2022-07-29T22:35:16.770Z,20.14
2022-07-29T22:37:50.412Z,20.17
2022-07-29T22:40:22.791Z,20.18
2022-07-29T22:43:04.342Z,20.20
2022-07-29T22:45:36.865Z,20.18
2022-07-29T22:48:09.851Z,20.09
2022-07-29T22:50:42.320Z,19.98
2022-07-29T22:53:14.754Z,19.94
2022-07-29T22:55:47.120Z,19.88
2022-07-29T22:58:20.114Z,19.96
2022-07-29T23:00:52.599Z,20.00
2022-07-29T23:03:25.324Z,19.98
2022-07-29T23:05:57.768Z,20.00
2022-07-29T23:08:30.216Z,19.95
2022-07-29T23:11:02.564Z,19.85
2022-07-29T23:13:36.119Z,19.85
2022-07-29T23:16:08.574Z,19.92
2022-07-29T23:18:40.983Z,19.85
2022-07-29T23:21:13.678Z,19.68
2022-07-29T23:23:46.287Z,19.82
2022-07-29T23:26:18.707Z,19.68
2022-07-29T23:28:51.790Z,19.73
2022-07-29T23:31:24.335Z,19.69
2022-07-29T23:33:56.719Z,19.37
2022-07-29T23:36:29.306Z,19.29
2022-07-29T23:39:01.742Z,19.23
2022-07-29T23:41:34.292Z,19.24
2022-07-29T23:44:07.440Z,19.37
2022-07-29T23:46:39.943Z,19.41
2022-07-29T23:49:13.310Z,19.43
2022-07-29T23:51:45.681Z,19.43
2022-07-29T23:54:18.106Z,19.40
2022-07-29T23:56:50.524Z,19.44
2022-07-29T23:59:23.971Z,19.33
